Time;durP1;ratioP1;P1;durP2;ratioP2;P2;SDS_P1;SDS_P2;PMS_P1;PMS_P2;Temp;Humidity;BMP_temperature;BMP_pressure;BME280_temperature;BME280_humidity;BME280_pressure;Samples;Min_cycle;Max_cycle;Signal;HPM_P1;HPM_P2
2023/09/13 00:01:15;;;;;;;5.25;3.22;;;20.10;83.40;;;;;;4996635;28;20042;-62
2023/09/13 00:03:40;;;;;;;3.67;3.22;;;20.10;83.30;;;;;;4996043;28;20035;-63
2023/09/13 00:06:06;;;;;;;6.47;3.60;;;20.10;83.60;;;;;;4999295;28;20125;-63
2023/09/13 00:08:32;;;;;;;4.43;3.72;;;20.10;83.90;;;;;;4997343;28;20501;-62
2023/09/13 00:11:04;;;;;;;3.67;3.15;;;20.10;84.10;;;;;;4993417;28;20046;-63
2023/09/13 00:13:32;;;;;;;5.50;4.07;;;20.00;84.30;;;;;;4995729;28;20061;-62
2023/09/13 00:15:57;;;;;;;4.57;3.10;;;20.00;84.10;;;;;;4999892;28;20124;-63
2023/09/13 00:18:23;;;;;;;3.70;3.38;;;20.10;84.10;;;;;;4997191;28;20033;-63
2023/09/13 00:20:52;;;;;;;3.97;3.60;;;20.00;84.10;;;;;;4995793;28;20040;-63
2023/09/13 00:23:18;;;;;;;5.95;3.40;;;20.10;84.40;;;;;;4995541;28;20038;-62
2023/09/13 00:25:43;;;;;;;3.40;3.10;;;20.10;84.30;;;;;;4996576;28;20062;-63
2023/09/13 00:28:09;;;;;;;4.88;3.22;;;20.10;84.30;;;;;;4995722;28;20417;-63
2023/09/13 00:30:34;;;;;;;3.50;3.20;;;20.20;84.40;;;;;;4994579;28;20042;-64
2023/09/13 00:33:00;;;;;;;3.38;3.05;;;20.10;84.10;;;;;;4999840;28;20517;-63
2023/09/13 00:35:26;;;;;;;4.35;3.22;;;20.10;84.00;;;;;;4995479;28;20413;-63
2023/09/13 00:37:52;;;;;;;3.60;3.20;;;20.10;83.90;;;;;;4994833;28;20172;-63
2023/09/13 00:40:18;;;;;;;4.95;3.30;;;20.10;83.40;;;;;;4995964;28;20042;-64
2023/09/13 00:42:44;;;;;;;4.07;3.22;;;20.10;83.30;;;;;;4995364;28;20038;-63
2023/09/13 00:45:10;;;;;;;3.90;2.97;;;20.10;83.40;;;;;;4995655;28;20451;-62
2023/09/13 00:47:36;;;;;;;4.00;2.85;;;20.00;84.50;;;;;;4996659;28;20129;-63
2023/09/13 00:50:03;;;;;;;5.47;3.03;;;20.10;83.90;;;;;;4995750;28;20046;-64
2023/09/13 00:52:28;;;;;;;4.47;2.97;;;20.00;83.90;;;;;;4995420;28;20045;-64
2023/09/13 00:54:54;;;;;;;3.78;2.90;;;20.10;84.00;;;;;;4998400;28;20092;-64
2023/09/13 00:57:22;;;;;;;2.80;2.60;;;20.00;84.00;;;;;;4996554;28;20517;-63
2023/09/13 00:59:48;;;;;;;4.43;2.97;;;20.00;84.80;;;;;;4996214;28;20042;-64
2023/09/13 01:02:13;;;;;;;3.28;2.97;;;20.00;84.10;;;;;;5000203;28;20065;-63
2023/09/13 01:04:39;;;;;;;3.40;3.10;;;20.00;84.20;;;;;;4996036;28;20121;-63
2023/09/13 01:07:08;;;;;;;3.15;2.80;;;20.10;84.30;;;;;;4995729;28;20081;-63
2023/09/13 01:09:34;;;;;;;3.00;2.80;;;20.00;84.30;;;;;;4996125;28;20041;-63
2023/09/13 01:12:00;;;;;;;3.40;3.10;;;20.10;84.40;;;;;;4991640;28;20034;-63
2023/09/13 01:14:26;;;;;;;5.93;2.97;;;20.10;84.60;;;;;;4994601;28;20545;-63
2023/09/13 01:17:03;;;;;;;2.90;2.58;;;20.10;84.50;;;;;;4993805;28;20981;-63
2023/09/13 01:20:03;;;;;;;3.75;2.97;;;20.10;84.60;;;;;;4997021;28;20317;-63
2023/09/13 01:22:54;;;;;;;4.35;2.83;;;20.10;85.30;;;;;;4995775;28;20040;-63
2023/09/13 01:25:49;;;;;;;4.80;3.13;;;20.10;85.20;;;;;;4989461;28;20061;-65
2023/09/13 01:28:23;;;;;;;4.30;2.90;;;20.10;85.30;;;;;;4994237;28;20049;-63
2023/09/13 01:30:49;;;;;;;5.75;3.42;;;20.10;85.10;;;;;;4995156;28;20189;-63
2023/09/13 01:33:15;;;;;;;3.95;3.00;;;20.10;84.50;;;;;;4994001;28;20153;-63
2023/09/13 01:35:40;;;;;;;6.60;3.17;;;20.10;84.50;;;;;;4994774;28;20117;-63
2023/09/13 01:38:06;;;;;;;3.40;3.03;;;20.10;84.40;;;;;;4992327;28;20045;-63
2023/09/13 01:40:36;;;;;;;5.00;3.33;;;20.20;84.50;;;;;;4994232;28;20121;-63
2023/09/13 01:43:03;;;;;;;2.80;2.60;;;20.30;84.50;;;;;;4996044;28;20125;-63
2023/09/13 01:45:32;;;;;;;3.58;2.83;;;20.20;84.10;;;;;;4992693;28;20049;-63
2023/09/13 01:47:59;;;;;;;4.35;2.65;;;20.20;83.60;;;;;;4992565;28;20033;-64
2023/09/13 01:50:25;;;;;;;3.13;2.75;;;20.30;83.60;;;;;;4995035;28;20421;-63
2023/09/13 01:52:50;;;;;;;2.85;2.55;;;20.30;83.40;;;;;;4992948;28;20041;-63
2023/09/13 01:55:16;;;;;;;4.07;3.08;;;20.30;83.10;;;;;;4993552;28;20034;-62
2023/09/13 01:57:41;;;;;;;3.35;2.65;;;20.30;83.40;;;;;;5011296;28;20647;-64
2023/09/13 02:00:07;;;;;;;3.22;3.00;;;20.30;83.30;;;;;;4993871;28;20173;-63
2023/09/13 02:02:33;;;;;;;3.15;2.83;;;20.30;83.30;;;;;;4992923;28;20117;-62
2023/09/13 02:04:59;;;;;;;3.22;2.92;;;20.30;83.30;;;;;;4997891;28;20113;-63
2023/09/13 02:07:24;;;;;;;5.00;2.85;;;20.30;83.20;;;;;;4993669;28;20038;-63
2023/09/13 02:09:52;;;;;;;4.35;3.20;;;20.30;83.30;;;;;;5008747;28;20046;-63
2023/09/13 02:12:17;;;;;;;5.03;3.35;;;20.30;83.30;;;;;;4990083;28;20089;-65
2023/09/13 02:14:43;;;;;;;5.75;3.53;;;20.30;83.30;;;;;;4991121;28;20046;-62
2023/09/13 02:17:09;;;;;;;3.67;3.08;;;20.30;83.50;;;;;;4993708;28;20034;-63
2023/09/13 02:19:35;;;;;;;4.47;3.03;;;20.30;83.60;;;;;;4994290;28;20091;-63
2023/09/13 02:22:01;;;;;;;4.25;3.13;;;20.30;84.10;;;;;;4995440;28;20045;-61
2023/09/13 02:24:27;;;;;;;4.03;3.42;;;20.30;84.30;;;;;;4993001;28;20560;-63
2023/09/13 02:26:58;;;;;;;4.22;3.25;;;20.40;84.30;;;;;;4995058;28;20038;-63
2023/09/13 02:29:25;;;;;;;3.88;3.08;;;20.40;84.70;;;;;;4993226;28;20030;-63
2023/09/13 02:31:51;;;;;;;3.35;3.05;;;20.30;84.50;;;;;;4995026;28;20061;-63
2023/09/13 02:34:17;;;;;;;6.00;3.60;;;20.30;84.50;;;;;;4995255;28;20088;-63
2023/09/13 02:36:42;;;;;;;3.95;3.38;;;20.40;84.50;;;;;;4995565;28;20057;-63
2023/09/13 02:39:30;;;;;;;3.55;3.25;;;20.40;84.40;;;;;;4992644;28;20042;-62
2023/09/13 02:41:55;;;;;;;5.13;3.45;;;20.40;85.00;;;;;;4994016;28;20525;-63
2023/09/13 02:44:21;;;;;;;3.65;3.35;;;20.40;84.20;;;;;;4993922;28;20094;-63
2023/09/13 02:46:46;;;;;;;5.45;3.70;;;20.40;84.00;;;;;;4992335;28;20406;-62
2023/09/13 02:49:12;;;;;;;4.68;3.75;;;20.50;83.80;;;;;;4993283;28;20038;-63
2023/09/13 02:51:37;;;;;;;5.05;3.35;;;20.40;83.60;;;;;;4993063;28;20092;-62
2023/09/13 02:54:04;;;;;;;4.53;3.75;;;20.40;83.60;;;;;;4995748;28;20052;-63
2023/09/13 02:56:29;;;;;;;4.88;3.70;;;20.40;83.60;;;;;;4994900;28;20030;-64
2023/09/13 02:58:55;;;;;;;5.05;3.13;;;20.40;83.60;;;;;;4995979;28;20041;-63
2023/09/13 03:01:22;;;;;;;4.15;3.47;;;20.50;83.90;;;;;;4995547;28;20041;-63
2023/09/13 03:03:48;;;;;;;4.00;3.65;;;20.40;83.80;;;;;;4991663;28;20061;-63
2023/09/13 03:06:15;;;;;;;5.40;3.53;;;20.40;83.70;;;;;;4994935;28;20084;-62
2023/09/13 03:08:41;;;;;;;5.32;3.70;;;20.40;84.00;;;;;;4990725;28;20057;-62
2023/09/13 03:11:15;;;;;;;3.92;3.58;;;20.50;84.30;;;;;;4991524;28;20034;-61
2023/09/13 03:13:41;;;;;;;4.60;3.10;;;20.40;84.50;;;;;;4989454;28;20135;-63
2023/09/13 03:16:15;;;;;;;4.18;3.50;;;20.40;84.20;;;;;;4990231;28;20038;-63
2023/09/13 03:18:41;;;;;;;4.07;3.60;;;20.40;84.60;;;;;;4994711;28;20520;-63
2023/09/13 03:21:11;;;;;;;4.95;3.60;;;20.40;84.30;;;;;;4993689;28;20073;-62
2023/09/13 03:23:38;;;;;;;4.45;3.67;;;20.50;84.60;;;;;;4997880;28;20110;-63
2023/09/13 03:26:25;;;;;;;5.05;3.92;;;20.40;84.50;;;;;;4997639;28;20046;-63
2023/09/13 03:28:55;;;;;;;5.88;4.15;;;20.40;85.40;;;;;;5000254;28;20090;-63
2023/09/13 03:31:23;;;;;;;6.35;3.90;;;20.40;84.80;;;;;;4999762;28;20037;-62
2023/09/13 03:33:50;;;;;;;6.72;3.70;;;20.40;84.80;;;;;;4999044;28;20045;-63
2023/09/13 03:36:16;;;;;;;5.55;3.78;;;20.40;84.80;;;;;;4999542;28;20121;-63
2023/09/13 03:38:43;;;;;;;5.60;4.05;;;20.30;84.80;;;;;;5000431;28;20034;-63
2023/09/13 03:41:13;;;;;;;5.82;3.75;;;20.40;85.00;;;;;;4998942;28;20084;-62
2023/09/13 03:43:40;;;;;;;4.90;3.70;;;20.30;84.80;;;;;;4996724;28;20037;-63
2023/09/13 03:46:08;;;;;;;5.90;4.13;;;20.30;84.80;;;;;;4997554;28;20468;-63
2023/09/13 03:48:35;;;;;;;5.32;4.32;;;20.20;84.80;;;;;;4997795;28;20432;-64
2023/09/13 03:51:01;;;;;;;6.18;3.90;;;20.20;84.80;;;;;;4999854;28;20437;-63
2023/09/13 03:53:27;;;;;;;4.50;3.88;;;20.10;84.90;;;;;;4999651;28;20033;-63
2023/09/13 03:55:53;;;;;;;5.50;4.13;;;20.10;85.00;;;;;;4998721;28;20053;-63
2023/09/13 03:58:19;;;;;;;5.55;4.03;;;20.20;85.00;;;;;;4999577;28;20121;-63
2023/09/13 04:00:45;;;;;;;6.63;4.32;;;20.10;84.80;;;;;;4999240;28;20145;-64
2023/09/13 04:03:11;;;;;;;5.35;4.05;;;20.10;84.80;;;;;;4999955;28;20452;-63
2023/09/13 04:05:37;;;;;;;4.07;3.58;;;20.10;84.80;;;;;;4999066;28;20038;-63
2023/09/13 04:08:03;;;;;;;5.25;4.03;;;20.10;84.80;;;;;;5000237;28;20034;-63
2023/09/13 04:10:29;;;;;;;5.30;3.90;;;20.00;84.80;;;;;;5001329;28;20048;-63
2023/09/13 04:12:55;;;;;;;4.53;4.13;;;20.00;85.00;;;;;;4997387;28;20034;-63
2023/09/13 04:15:20;;;;;;;5.53;4.07;;;20.00;85.00;;;;;;4995380;28;20034;-64
2023/09/13 04:17:46;;;;;;;7.18;4.05;;;20.00;84.90;;;;;;4998860;28;20049;-63
2023/09/13 04:20:12;;;;;;;5.47;4.13;;;20.00;84.80;;;;;;4996167;28;20034;-63
2023/09/13 04:22:37;;;;;;;4.80;4.18;;;20.00;84.70;;;;;;4996260;28;20034;-63
2023/09/13 04:25:07;;;;;;;5.15;4.07;;;19.90;84.70;;;;;;4999071;28;20556;-61
2023/09/13 04:27:32;;;;;;;6.93;4.00;;;19.90;84.70;;;;;;5002050;28;20065;-63
2023/09/13 04:29:58;;;;;;;6.85;4.63;;;19.90;84.70;;;;;;5002253;28;20551;-63
2023/09/13 04:32:24;;;;;;;4.45;4.05;;;19.80;84.60;;;;;;5001644;28;20065;-63
2023/09/13 04:34:53;;;;;;;7.30;4.13;;;19.80;84.70;;;;;;4997728;28;20069;-63
2023/09/13 04:37:20;;;;;;;8.25;4.15;;;19.70;85.00;;;;;;4998207;28;20046;-63
2023/09/13 04:39:45;;;;;;;5.10;4.57;;;19.70;85.00;;;;;;4998661;28;20034;-63
2023/09/13 04:42:13;;;;;;;5.82;4.53;;;19.60;85.00;;;;;;4999570;28;20650;-63
2023/09/13 04:44:39;;;;;;;5.18;4.15;;;19.60;85.00;;;;;;4997459;28;20054;-63
2023/09/13 04:47:05;;;;;;;6.43;4.63;;;19.50;85.10;;;;;;4998976;28;20030;-63
2023/09/13 04:49:31;;;;;;;5.43;4.40;;;19.50;85.20;;;;;;4998206;28;20026;-63
2023/09/13 04:51:57;;;;;;;5.03;4.47;;;19.40;85.30;;;;;;4999462;28;20038;-63
2023/09/13 04:54:23;;;;;;;5.00;4.50;;;19.40;85.70;;;;;;5000224;28;20049;-63
2023/09/13 04:56:49;;;;;;;6.53;4.60;;;19.40;85.60;;;;;;4999874;28;20116;-63
2023/09/13 04:59:15;;;;;;;6.28;3.90;;;19.40;85.70;;;;;;5000507;28;20036;-63
2023/09/13 05:01:41;;;;;;;4.93;4.53;;;19.30;85.50;;;;;;4999874;28;20041;-63
2023/09/13 05:04:07;;;;;;;6.43;4.35;;;19.30;85.70;;;;;;4998074;28;20456;-64
2023/09/13 05:06:32;;;;;;;6.20;4.63;;;19.30;85.80;;;;;;4998287;28;20038;-63
2023/09/13 05:08:58;;;;;;;4.55;4.15;;;19.30;85.90;;;;;;4999070;28;20022;-63
2023/09/13 05:11:24;;;;;;;5.50;3.90;;;19.20;85.80;;;;;;4997162;28;20035;-64
2023/09/13 05:13:50;;;;;;;4.70;4.10;;;19.20;85.90;;;;;;4997604;28;20414;-63
2023/09/13 05:16:19;;;;;;;5.70;4.13;;;19.20;85.90;;;;;;4997818;28;20034;-63
2023/09/13 05:18:48;;;;;;;5.15;4.47;;;19.20;86.00;;;;;;4997553;28;20383;-63
2023/09/13 05:21:13;;;;;;;5.55;4.45;;;19.20;86.40;;;;;;4997348;28;20042;-62
2023/09/13 05:23:39;;;;;;;6.05;4.75;;;19.20;86.50;;;;;;4998095;28;20061;-63
2023/09/13 05:26:04;;;;;;;5.40;4.32;;;19.20;86.60;;;;;;4995939;28;20748;-63
2023/09/13 05:28:34;;;;;;;5.75;5.07;;;19.20;86.70;;;;;;4998559;28;20062;-64
2023/09/13 05:31:05;;;;;;;6.10;4.30;;;19.20;87.10;;;;;;4997839;28;20065;-63
2023/09/13 05:33:31;;;;;;;6.43;4.43;;;19.20;87.40;;;;;;4996435;28;20030;-61
2023/09/13 05:35:56;;;;;;;5.63;4.68;;;19.20;87.30;;;;;;4997370;28;20030;-64
2023/09/13 05:38:22;;;;;;;5.35;4.85;;;19.30;87.40;;;;;;4998497;28;20084;-62
2023/09/13 05:40:47;;;;;;;7.85;5.03;;;19.30;87.50;;;;;;4997034;28;20283;-62
2023/09/13 05:43:13;;;;;;;9.73;5.88;;;19.30;87.60;;;;;;4996816;28;20165;-63
2023/09/13 05:45:40;;;;;;;7.72;5.68;;;19.40;87.80;;;;;;4997692;28;20038;-63
2023/09/13 05:48:06;;;;;;;10.98;5.82;;;19.40;87.80;;;;;;4998271;28;20113;-63
2023/09/13 05:50:32;;;;;;;7.82;5.53;;;19.40;87.80;;;;;;4995463;28;20038;-63
2023/09/13 05:52:57;;;;;;;7.15;5.05;;;19.50;88.00;;;;;;4997187;28;20041;-63
2023/09/13 05:55:23;;;;;;;12.15;5.55;;;19.50;88.10;;;;;;4996867;28;20044;-63
2023/09/13 05:57:50;;;;;;;8.43;5.05;;;19.50;88.20;;;;;;4997847;28;20441;-63
2023/09/13 06:00:16;;;;;;;7.18;5.30;;;19.50;88.30;;;;;;4997793;28;20420;-62
2023/09/13 06:02:42;;;;;;;13.95;5.47;;;19.50;88.20;;;;;;4995644;28;20529;-63
2023/09/13 06:05:09;;;;;;;10.20;5.63;;;19.50;88.10;;;;;;4998031;28;20037;-63
2023/09/13 06:07:35;;;;;;;9.80;5.55;;;19.60;88.10;;;;;;4996853;28;20038;-63
2023/09/13 06:10:02;;;;;;;8.98;5.70;;;19.60;88.50;;;;;;4997973;28;20501;-63
2023/09/13 06:12:27;;;;;;;8.55;5.70;;;19.60;88.80;;;;;;4994721;28;20038;-63
2023/09/13 06:14:55;;;;;;;8.35;5.57;;;19.70;88.90;;;;;;4997172;28;20089;-63
2023/09/13 06:17:22;;;;;;;7.45;5.32;;;19.70;88.80;;;;;;4996888;28;20537;-63
2023/09/13 06:19:48;;;;;;;7.72;5.45;;;19.80;88.80;;;;;;4995408;28;20045;-63
2023/09/13 06:22:14;;;;;;;6.20;5.32;;;19.80;88.70;;;;;;4997283;28;20136;-62
2023/09/13 06:24:40;;;;;;;6.90;5.03;;;19.90;88.80;;;;;;4996246;28;20038;-64
2023/09/13 06:27:05;;;;;;;6.13;5.15;;;19.90;88.50;;;;;;4995855;28;20090;-63
2023/09/13 06:29:31;;;;;;;6.70;5.15;;;19.90;88.30;;;;;;4997115;28;20052;-62
2023/09/13 06:31:56;;;;;;;5.70;4.95;;;20.10;88.20;;;;;;4997137;28;20057;-62
2023/09/13 06:34:22;;;;;;;6.90;5.70;;;20.10;88.00;;;;;;4995012;28;20041;-63
2023/09/13 06:36:50;;;;;;;8.98;5.35;;;20.10;87.70;;;;;;4996799;28;20125;-63
2023/09/13 06:39:18;;;;;;;5.88;5.10;;;20.20;87.60;;;;;;4996821;28;20076;-63
2023/09/13 06:41:43;;;;;;;5.43;4.88;;;20.30;87.50;;;;;;4997591;28;20043;-62
2023/09/13 06:44:09;;;;;;;5.75;5.13;;;20.30;87.50;;;;;;4996759;28;20035;-63
2023/09/13 06:46:40;;;;;;;5.93;5.30;;;20.40;87.50;;;;;;4996428;28;20033;-62
2023/09/13 06:49:06;;;;;;;7.05;5.28;;;20.40;87.40;;;;;;4996086;28;20118;-65
2023/09/13 06:51:31;;;;;;;5.78;5.18;;;20.50;87.30;;;;;;4995926;28;20395;-63
2023/09/13 06:53:57;;;;;;;7.75;5.55;;;20.50;87.10;;;;;;4996829;28;20460;-65
2023/09/13 06:56:23;;;;;;;6.95;4.88;;;20.50;87.00;;;;;;4997387;28;20461;-63
2023/09/13 06:58:48;;;;;;;7.97;5.38;;;20.60;86.60;;;;;;4995034;28;20050;-63
2023/09/13 07:01:14;;;;;;;5.85;5.20;;;20.60;86.20;;;;;;4995723;28;20029;-63
2023/09/13 07:03:40;;;;;;;6.55;5.30;;;20.60;86.10;;;;;;4994757;28;20030;-63
2023/09/13 07:06:05;;;;;;;5.97;5.38;;;20.60;86.20;;;;;;4996714;28;20497;-63
2023/09/13 07:08:31;;;;;;;7.95;5.30;;;20.60;86.10;;;;;;4996093;28;20384;-61
2023/09/13 07:10:56;;;;;;;7.45;5.40;;;20.70;86.20;;;;;;4992059;28;20034;-63
2023/09/13 07:13:22;;;;;;;6.50;5.28;;;20.70;86.00;;;;;;4996546;28;20563;-62
2023/09/13 07:15:48;;;;;;;6.00;5.40;;;20.60;85.90;;;;;;4997046;28;20031;-62
2023/09/13 07:18:14;;;;;;;6.63;5.80;;;20.70;85.90;;;;;;4995008;28;20046;-63
2023/09/13 07:20:40;;;;;;;7.70;5.85;;;20.70;86.00;;;;;;4996151;28;20041;-63
2023/09/13 07:23:06;;;;;;;5.97;5.40;;;20.80;85.80;;;;;;4996909;28;20072;-63
2023/09/13 07:25:31;;;;;;;6.15;5.32;;;20.80;85.90;;;;;;4995557;28;20192;-63
2023/09/13 07:27:57;;;;;;;7.22;5.13;;;20.80;85.90;;;;;;4997003;28;20037;-63
2023/09/13 07:30:23;;;;;;;6.05;5.45;;;20.80;85.80;;;;;;4997370;28;20077;-63
2023/09/13 07:32:49;;;;;;;6.50;5.65;;;20.80;85.80;;;;;;4994550;28;20486;-63
2023/09/13 07:35:15;;;;;;;7.10;5.90;;;20.90;86.10;;;;;;4995680;28;20409;-63
2023/09/13 07:37:40;;;;;;;6.88;5.70;;;21.00;86.20;;;;;;4995635;28;20031;-63
2023/09/13 07:40:07;;;;;;;7.25;5.65;;;21.00;86.00;;;;;;4996960;28;20104;-63
2023/09/13 07:42:32;;;;;;;6.80;6.10;;;21.00;85.80;;;;;;4996664;28;20041;-64
2023/09/13 07:44:59;;;;;;;7.60;6.28;;;21.10;86.00;;;;;;4997245;28;20125;-63
2023/09/13 07:47:27;;;;;;;8.13;6.20;;;21.20;85.90;;;;;;4996885;28;20049;-64
2023/09/13 07:49:52;;;;;;;6.55;5.93;;;21.20;85.40;;;;;;4995703;28;20034;-63
2023/09/13 07:52:18;;;;;;;8.02;6.18;;;21.20;85.10;;;;;;4995665;28;20049;-63
2023/09/13 07:54:43;;;;;;;7.68;6.07;;;21.20;85.00;;;;;;4994423;28;20112;-64
2023/09/13 07:57:09;;;;;;;9.68;6.03;;;21.20;85.00;;;;;;4996003;28;20034;-63
2023/09/13 07:59:34;;;;;;;7.55;6.20;;;21.20;85.10;;;;;;5010930;28;20436;-63
2023/09/13 08:02:00;;;;;;;6.68;5.97;;;21.30;85.00;;;;;;4996920;28;20054;-62
2023/09/13 08:04:25;;;;;;;6.20;5.60;;;21.30;84.80;;;;;;4994527;28;20033;-63
2023/09/13 08:06:51;;;;;;;7.00;6.30;;;21.30;84.70;;;;;;4996304;28;20036;-63
2023/09/13 08:09:17;;;;;;;9.18;6.22;;;21.30;84.60;;;;;;4998625;28;20038;-62
2023/09/13 08:11:47;;;;;;;11.18;7.20;;;21.40;84.50;;;;;;4998578;28;20426;-63
2023/09/13 08:14:12;;;;;;;9.35;6.50;;;21.40;84.10;;;;;;5000936;28;20034;-62
2023/09/13 08:16:38;;;;;;;9.35;6.70;;;21.40;83.80;;;;;;4999816;28;20521;-63
2023/09/13 08:19:04;;;;;;;8.18;6.10;;;21.40;83.70;;;;;;4999724;28;20037;-63
2023/09/13 08:21:30;;;;;;;7.60;6.05;;;21.40;83.40;;;;;;4999774;28;20104;-63
2023/09/13 08:23:55;;;;;;;9.27;6.75;;;21.40;83.80;;;;;;4999236;28;20042;-63
2023/09/13 08:26:21;;;;;;;9.50;7.10;;;21.50;83.80;;;;;;5000989;28;20034;-63
2023/09/13 08:28:46;;;;;;;7.32;6.63;;;21.50;83.70;;;;;;4999596;28;20040;-63
2023/09/13 08:31:12;;;;;;;11.02;6.90;;;21.50;83.60;;;;;;4999543;28;20344;-63
2023/09/13 08:33:37;;;;;;;8.05;6.55;;;21.50;83.80;;;;;;5000058;28;20034;-63
2023/09/13 08:36:04;;;;;;;7.85;6.65;;;21.50;84.20;;;;;;5013307;28;20097;-63
2023/09/13 08:38:30;;;;;;;11.07;6.60;;;21.50;84.30;;;;;;4999629;28;20026;-61
2023/09/13 08:40:55;;;;;;;7.18;6.10;;;21.50;84.50;;;;;;4999261;28;20084;-63
2023/09/13 08:43:22;;;;;;;7.97;6.30;;;21.60;84.50;;;;;;5000169;28;20034;-63
2023/09/13 08:45:48;;;;;;;6.97;6.28;;;21.60;84.50;;;;;;4999230;28;20092;-63
2023/09/13 08:48:16;;;;;;;6.82;6.13;;;21.60;84.10;;;;;;5000023;28;20038;-63
2023/09/13 08:50:42;;;;;;;8.77;6.70;;;21.70;84.10;;;;;;4999087;28;20042;-62
2023/09/13 08:53:10;;;;;;;8.75;6.38;;;21.70;84.20;;;;;;4999706;28;20029;-63
2023/09/13 08:55:37;;;;;;;7.70;6.45;;;21.70;84.30;;;;;;5000830;28;20030;-63
2023/09/13 08:58:03;;;;;;;6.63;6.03;;;21.70;84.30;;;;;;5001335;28;20096;-63
2023/09/13 09:00:34;;;;;;;9.07;6.53;;;21.70;84.20;;;;;;5000477;28;20034;-63
2023/09/13 09:03:04;;;;;;;11.10;6.30;;;21.80;84.00;;;;;;5000426;28;20608;-63
2023/09/13 09:05:31;;;;;;;9.48;6.05;;;21.80;83.80;;;;;;5000176;28;20034;-63
2023/09/13 09:07:58;;;;;;;8.35;6.28;;;21.80;83.80;;;;;;4999318;28;20041;-64
2023/09/13 09:10:24;;;;;;;9.75;6.43;;;21.80;84.10;;;;;;5001608;28;20065;-62
2023/09/13 09:12:52;;;;;;;6.95;6.25;;;21.80;84.10;;;;;;4999226;28;20062;-62
2023/09/13 09:15:20;;;;;;;7.47;6.20;;;21.90;84.00;;;;;;4999354;28;20042;-62
2023/09/13 09:17:48;;;;;;;6.50;5.90;;;21.80;84.10;;;;;;4998628;28;20041;-62
2023/09/13 09:20:14;;;;;;;7.63;5.93;;;21.90;84.30;;;;;;4997432;28;20049;-63
2023/09/13 09:22:41;;;;;;;6.88;5.97;;;21.80;84.50;;;;;;4997745;28;20088;-63
2023/09/13 09:25:11;;;;;;;9.85;6.30;;;21.80;84.30;;;;;;4999809;28;20042;-63
2023/09/13 09:27:39;;;;;;;7.25;5.95;;;21.90;83.90;;;;;;4999885;28;20077;-64
2023/09/13 09:30:07;;;;;;;12.57;6.22;;;21.80;84.10;;;;;;4999744;28;20037;-63
2023/09/13 09:32:36;;;;;;;6.97;5.97;;;21.90;84.30;;;;;;4998900;28;20033;-64
2023/09/13 09:35:05;;;;;;;6.28;5.68;;;21.90;84.40;;;;;;4998246;28;20502;-64
2023/09/13 09:37:33;;;;;;;6.78;5.55;;;21.90;84.50;;;;;;4998586;28;20068;-64
2023/09/13 09:39:59;;;;;;;6.32;5.68;;;21.90;84.50;;;;;;4999838;28;20044;-63
2023/09/13 09:42:25;;;;;;;6.70;5.10;;;21.90;84.40;;;;;;4999383;28;20038;-63
2023/09/13 09:44:52;;;;;;;6.45;5.85;;;21.90;84.60;;;;;;4999011;28;20085;-63
2023/09/13 09:47:19;;;;;;;7.57;5.97;;;21.90;84.60;;;;;;4998785;28;20053;-63
2023/09/13 09:49:49;;;;;;;6.63;5.50;;;21.90;84.70;;;;;;4997478;28;20124;-63
2023/09/13 09:52:16;;;;;;;7.97;5.50;;;21.90;84.80;;;;;;4998171;28;20057;-63
2023/09/13 09:54:49;;;;;;;7.18;5.38;;;21.90;84.90;;;;;;4999048;28;20038;-63
2023/09/13 09:57:22;;;;;;;8.30;5.47;;;21.90;85.20;;;;;;4999933;28;20477;-63
2023/09/13 09:59:48;;;;;;;5.70;5.20;;;21.90;84.60;;;;;;4999676;28;20038;-63
2023/09/13 10:02:13;;;;;;;6.90;5.05;;;21.90;84.80;;;;;;5000436;28;20135;-63
2023/09/13 10:04:47;;;;;;;5.68;5.18;;;21.90;85.20;;;;;;4999725;28;20461;-62
2023/09/13 10:07:13;;;;;;;7.53;5.50;;;21.90;85.50;;;;;;4998475;28;20112;-63
2023/09/13 10:09:44;;;;;;;7.38;5.55;;;21.90;85.30;;;;;;4997337;28;20796;-64
2023/09/13 10:12:11;;;;;;;5.50;5.00;;;21.90;85.30;;;;;;5000451;28;20177;-63
2023/09/13 10:14:39;;;;;;;5.20;4.78;;;22.00;85.00;;;;;;4998212;28;20519;-64
2023/09/13 10:17:05;;;;;;;7.15;4.75;;;22.00;84.70;;;;;;4997906;28;20060;-63
2023/09/13 10:19:32;;;;;;;5.70;5.20;;;22.00;84.80;;;;;;4997827;28;20038;-62
2023/09/13 10:21:58;;;;;;;7.70;5.38;;;22.10;85.30;;;;;;4999007;28;20040;-63
2023/09/13 10:24:28;;;;;;;5.97;5.38;;;22.10;85.20;;;;;;4997796;28;20042;-61
2023/09/13 10:26:55;;;;;;;6.50;4.90;;;22.10;85.10;;;;;;4998284;28;20105;-63
2023/09/13 10:29:31;;;;;;;7.60;5.35;;;22.20;85.50;;;;;;4997756;28;20042;-63
2023/09/13 10:32:19;;;;;;;6.25;5.65;;;22.20;85.70;;;;;;4996522;28;20121;-63
2023/09/13 10:34:58;;;;;;;5.85;5.20;;;22.30;86.00;;;;;;4996840;28;20082;-61
2023/09/13 10:37:42;;;;;;;5.53;5.03;;;22.30;86.20;;;;;;4998049;28;20065;-61
2023/09/13 10:40:15;;;;;;;6.60;4.95;;;22.40;85.60;;;;;;4998361;28;20068;-60
2023/09/13 10:42:42;;;;;;;5.82;5.25;;;22.40;85.60;;;;;;4997775;28;20062;-61
2023/09/13 10:45:09;;;;;;;5.30;4.80;;;22.30;85.20;;;;;;4997703;28;20079;-62
2023/09/13 10:47:40;;;;;;;5.75;5.15;;;22.40;85.20;;;;;;4996309;28;20030;-62
2023/09/13 10:50:07;;;;;;;5.65;4.82;;;22.50;85.30;;;;;;4999161;28;20035;-62
2023/09/13 10:52:34;;;;;;;5.55;4.55;;;22.60;85.30;;;;;;4997421;28;20043;-62
2023/09/13 10:55:04;;;;;;;5.07;4.57;;;22.60;84.90;;;;;;4999042;28;20113;-62
2023/09/13 10:57:31;;;;;;;5.18;4.57;;;22.60;84.60;;;;;;4999248;28;20394;-61
2023/09/13 10:59:58;;;;;;;5.65;5.00;;;22.60;84.80;;;;;;4998777;28;20038;-61
2023/09/13 11:02:23;;;;;;;5.22;4.72;;;22.70;84.80;;;;;;4998634;28;20042;-61
2023/09/13 11:04:50;;;;;;;5.20;4.70;;;22.70;84.70;;;;;;4996708;28;20469;-63
2023/09/13 11:07:16;;;;;;;4.47;4.07;;;22.70;85.90;;;;;;4997586;28;20030;-64
2023/09/13 11:09:43;;;;;;;4.07;3.67;;;22.70;84.50;;;;;;4998737;28;20034;-64
2023/09/13 11:12:12;;;;;;;4.55;4.10;;;22.70;83.80;;;;;;4996763;28;20034;-64
2023/09/13 11:14:42;;;;;;;4.82;3.97;;;22.80;83.40;;;;;;4997297;28;20037;-64
2023/09/13 11:17:33;;;;;;;4.65;4.25;;;22.80;83.40;;;;;;4996592;28;20080;-63
2023/09/13 11:20:24;;;;;;;4.57;3.90;;;22.80;83.00;;;;;;4996891;28;20060;-64
2023/09/13 11:23:22;;;;;;;4.63;4.22;;;22.90;83.10;;;;;;4997459;28;20045;-63
2023/09/13 11:25:53;;;;;;;3.85;3.55;;;22.90;82.70;;;;;;4973177;28;20525;-62
2023/09/13 11:28:43;;;;;;;4.47;4.07;;;22.90;83.10;;;;;;4996916;28;20044;-64
2023/09/13 11:31:10;;;;;;;4.45;4.05;;;22.90;83.40;;;;;;4998343;28;20173;-64
2023/09/13 11:33:54;;;;;;;4.20;3.80;;;23.00;83.00;;;;;;4996432;28;20035;-64
2023/09/13 11:36:20;;;;;;;3.80;3.50;;;23.00;82.20;;;;;;4996851;28;20660;-64
2023/09/13 11:38:50;;;;;;;3.67;3.38;;;23.00;82.40;;;;;;4996421;28;20498;-64
2023/09/13 11:41:17;;;;;;;4.13;3.50;;;23.00;81.80;;;;;;4997129;28;20030;-62
2023/09/13 11:43:43;;;;;;;4.05;3.47;;;23.10;81.70;;;;;;4997699;28;20044;-63
2023/09/13 11:46:09;;;;;;;3.53;3.22;;;23.10;81.60;;;;;;5001015;28;20121;-64
2023/09/13 11:48:41;;;;;;;3.95;3.58;;;23.10;81.30;;;;;;5000835;28;20034;-64
2023/09/13 11:51:14;;;;;;;4.20;3.72;;;23.20;81.30;;;;;;4999182;28;20054;-64
2023/09/13 11:53:40;;;;;;;3.97;3.55;;;23.20;82.00;;;;;;5001168;28;20026;-64
2023/09/13 11:56:07;;;;;;;3.42;3.20;;;23.20;81.70;;;;;;5001202;28;20454;-64
2023/09/13 11:58:36;;;;;;;4.03;3.40;;;23.30;81.30;;;;;;4999671;28;20064;-63
2023/09/13 12:01:06;;;;;;;3.30;3.05;;;23.30;80.30;;;;;;5000715;28;20073;-64
2023/09/13 12:03:39;;;;;;;3.45;3.17;;;23.40;80.30;;;;;;4999546;28;20033;-64
2023/09/13 12:06:06;;;;;;;3.40;3.10;;;23.40;80.00;;;;;;5000227;28;20049;-64
2023/09/13 12:08:34;;;;;;;2.40;2.20;;;23.40;79.00;;;;;;4999483;28;20061;-65
2023/09/13 12:11:04;;;;;;;2.55;2.20;;;23.40;77.60;;;;;;4998961;28;20025;-63
2023/09/13 12:13:47;;;;;;;2.17;1.80;;;23.20;76.70;;;;;;5000441;28;20037;-64
2023/09/13 12:16:14;;;;;;;3.15;1.67;;;23.10;76.60;;;;;;5000408;28;20038;-64
2023/09/13 12:18:41;;;;;;;2.45;1.90;;;22.90;77.40;;;;;;4998670;28;20049;-65
2023/09/13 12:21:09;;;;;;;2.22;1.90;;;22.70;77.90;;;;;;5000906;28;20070;-62
2023/09/13 12:23:39;;;;;;;1.60;1.50;;;22.60;78.90;;;;;;4999845;28;20050;-64
2023/09/13 12:26:15;;;;;;;2.28;1.50;;;22.50;79.10;;;;;;5000932;28;20032;-65
2023/09/13 12:28:42;;;;;;;2.05;1.70;;;22.40;78.60;;;;;;4999385;28;20038;-64
2023/09/13 12:31:13;;;;;;;2.08;1.55;;;22.30;78.70;;;;;;5000109;28;20495;-64
2023/09/13 12:33:44;;;;;;;1.48;1.38;;;22.20;79.60;;;;;;4999709;28;20038;-64
2023/09/13 12:36:10;;;;;;;1.73;1.58;;;22.20;80.30;;;;;;5000858;28;20225;-64
2023/09/13 12:38:42;;;;;;;1.80;1.35;;;22.20;80.40;;;;;;4999141;28;20030;-64
2023/09/13 12:41:16;;;;;;;1.70;1.60;;;22.10;80.40;;;;;;5000265;28;20057;-63
2023/09/13 12:43:44;;;;;;;2.10;1.60;;;22.20;81.20;;;;;;4998948;28;20034;-63
2023/09/13 12:46:17;;;;;;;1.42;1.33;;;22.20;80.80;;;;;;5000036;28;20465;-63
2023/09/13 12:48:43;;;;;;;1.42;1.33;;;22.20;80.10;;;;;;5005074;28;20405;-64